Crystal — WDJ2406 — position and weather

sailwx.info

Track history (hours):
 
Tides and Currents Weather Stations Pressure Air Temp Water Temp Dewpoint Dewpoint Depression Visibility Wind Speed Wind Dir Waves Ship Positions

Crystal

Owner: Open Oceans LLC, San Diego, CA. More information available from US FCC via Universal Licensing System and Coast Guard Vessel Documentation Center.

Last reported at 2018-Jan-12 11:20 UTC. Time now 2018-Feb-21 06:52 UTC.
Position N 33°08' W 117°59'.
Warning: this ship's position is 39 days out of date.

MMSI: 369197000.

Date/timePositionNaut miles runAvg speedWind from/ knotsBaromVisibWave heightAir tempDewpointWater temp
2018-Jan-12 11:20N 33°08' W 117°59'4 9.5
2018-Jan-12 10:52N 33°05' W 117°55'4 9.7
2018-Jan-12 10:30N 33°03' W 117°52'5 9.6
2018-Jan-12 10:00N 32°60' W 117°47'5 9.8
2018-Jan-12 09:30N 32°56' W 117°43'5 9.8
2018-Jan-12 09:00N 32°53' W 117°38'5 9.6
2018-Jan-12 08:30N 32°50' W 117°34'5 9.5
2018-Jan-12 08:00N 32°47' W 117°30'5 9.5
2018-Jan-12 07:31N 32°44' W 117°25'5 9.4
2018-Jan-12 07:00N 32°41' W 117°21'5 9.2
2018-Jan-12 06:29N 32°38' W 117°17'  
Track history (hours):
 
Tides and Currents Weather Stations Pressure Air Temp Water Temp Dewpoint Dewpoint Depression Visibility Wind Speed Wind Dir Waves Ship Positions

Crystal

Owner: Open Oceans LLC, San Diego, CA. More information available from US FCC via Universal Licensing System and Coast Guard Vessel Documentation Center.

Last reported at 2018-Jan-12 11:20 UTC. Time now 2018-Feb-21 06:52 UTC.
Position N 33°08' W 117°59'.
Warning: this ship's position is 39 days out of date.

MMSI: 369197000.

Date/timePositionNaut miles runAvg speedWind from/ knotsBaromVisibWave heightAir tempDewpointWater temp
2018-Jan-12 11:20N 33°08' W 117°59'4 9.5
2018-Jan-12 10:52N 33°05' W 117°55'4 9.7
2018-Jan-12 10:30N 33°03' W 117°52'5 9.6
2018-Jan-12 10:00N 32°60' W 117°47'5 9.8
2018-Jan-12 09:30N 32°56' W 117°43'5 9.8
2018-Jan-12 09:00N 32°53' W 117°38'5 9.6
2018-Jan-12 08:30N 32°50' W 117°34'5 9.5
2018-Jan-12 08:00N 32°47' W 117°30'5 9.5
2018-Jan-12 07:31N 32°44' W 117°25'5 9.4
2018-Jan-12 07:00N 32°41' W 117°21'5 9.2
2018-Jan-12 06:29N 32°38' W 117°17'  

Dump ship's entire track history